Paw Paw, Illinois
Current Conditions -  °F | °C
As of 5:55 AM on Thursday 27 Nov 2014 (Local Time) from KRPJ Reporting Station
Overcast Overcast  
Wind Chill: 12°   Ceiling: 3900
Heat Index: 22°   Visibility: 7mi
Dew Point: 19°   Wind: 9mph
Humidity: 89%   Direction: 290°WNW
Pressure: 30.31"   Gusts: NA
Location:  41.69°N, 88.98°W
Report Text: KRPJ 271155Z AUTO 29008KT 7SM OVC039 M06/M07 A3031 RMK AO2 T10571072 11055 21094
Loading
Personal Weather Stations






























Interactive Weather Map New forecast layout! Learn more

10-Day Weather Forecast

Advertisements
Track Severe Weather on mobile